createdAt,value
2022-12-19T00:10:13.540Z,34.20
2022-12-19T00:30:13.260Z,20.50
2022-12-19T00:50:13.002Z,13.60
2022-12-19T01:10:12.757Z,21.10
2022-12-19T01:30:12.481Z,28.60
2022-12-19T01:50:12.214Z,36.20
2022-12-19T02:10:11.943Z,39.50
2022-12-19T02:30:11.719Z,25.40
2022-12-19T02:50:11.485Z,25.70
2022-12-19T03:10:11.209Z,36.10
2022-12-19T03:30:18.498Z,34.20
2022-12-19T03:50:10.697Z,34.70
2022-12-19T04:10:10.438Z,42.80
2022-12-19T04:30:10.163Z,41.70
2022-12-19T04:50:09.917Z,49.30
2022-12-19T05:10:09.669Z,61.00
2022-12-19T05:30:09.346Z,35.60
2022-12-19T05:50:09.078Z,33.40
2022-12-19T06:10:08.799Z,63.60
2022-12-19T06:30:08.668Z,36.70
2022-12-19T06:50:08.267Z,28.80
2022-12-19T07:10:08.004Z,67.20
2022-12-19T07:30:07.718Z,67.30
2022-12-19T07:50:07.466Z,59.60
2022-12-19T08:10:07.198Z,65.50
2022-12-19T08:30:06.945Z,67.20
2022-12-19T08:50:06.677Z,75.50
2022-12-19T09:10:06.392Z,75.70
2022-12-19T09:30:07.173Z,81.70
2022-12-19T09:50:05.906Z,70.40
2022-12-19T10:12:35.114Z,61.10
2022-12-19T10:30:05.388Z,90.10
2022-12-19T10:50:09.483Z,65.80
2022-12-19T11:10:57.199Z,56.40
2022-12-19T11:50:04.309Z,48.20
2022-12-19T12:14:38.018Z,57.90
2022-12-19T12:31:57.749Z,53.90
2022-12-19T12:50:03.497Z,51.40
2022-12-19T13:10:03.238Z,35.60
2022-12-19T13:30:02.980Z,56.90
2022-12-19T13:50:02.693Z,57.60
2022-12-19T14:11:43.342Z,60.40
2022-12-19T14:30:30.584Z,55.00
2022-12-19T14:54:09.147Z,82.00
2022-12-19T15:10:58.446Z,72.00
2022-12-19T15:30:01.355Z,72.90
2022-12-19T15:50:01.083Z,64.50
2022-12-19T16:10:00.818Z,57.90
2022-12-19T16:30:00.513Z,42.00
2022-12-19T16:50:00.245Z,77.60
2022-12-19T17:10:00.008Z,52.40
2022-12-19T17:29:59.695Z,64.30
2022-12-19T17:49:59.436Z,54.60
2022-12-19T18:09:59.188Z,52.10
2022-12-19T18:29:58.897Z,69.00
2022-12-19T18:49:58.624Z,62.40
2022-12-19T19:09:58.406Z,57.10
2022-12-19T19:29:58.122Z,76.20
2022-12-19T19:49:57.818Z,49.60
2022-12-19T20:09:57.547Z,54.10
2022-12-19T20:29:57.246Z,43.20
2022-12-19T20:49:56.980Z,56.00
2022-12-19T21:09:56.755Z,37.40
2022-12-19T21:29:56.432Z,33.50
2022-12-19T21:49:56.188Z,44.70
2022-12-19T22:09:55.888Z,38.90
2022-12-19T22:29:55.712Z,33.20
2022-12-19T22:49:55.401Z,28.40
2022-12-19T23:09:55.061Z,25.70
2022-12-19T23:29:54.788Z,28.30
2022-12-19T23:49:54.561Z,32.70
